createdAt,value
2017-08-01T00:02:00.365Z,48.60
2017-08-01T00:04:28.696Z,48.40
2017-08-01T00:06:57.754Z,49.10
2017-08-01T00:09:26.636Z,49.00
2017-08-01T00:11:55.058Z,49.00
2017-08-01T00:14:23.336Z,49.30
2017-08-01T00:16:52.370Z,50.50
2017-08-01T00:19:20.620Z,51.10
2017-08-01T00:21:48.922Z,50.40
2017-08-01T00:24:17.782Z,50.30
2017-08-01T00:26:46.870Z,50.40
2017-08-01T00:29:15.478Z,50.40
2017-08-01T00:31:44.137Z,50.40
2017-08-01T00:34:12.586Z,50.30
2017-08-01T00:36:40.947Z,50.20
2017-08-01T00:39:09.246Z,50.80
2017-08-01T00:41:37.531Z,50.80
2017-08-01T00:44:05.856Z,50.70
2017-08-01T00:46:34.955Z,51.60
2017-08-01T00:49:03.274Z,51.70
2017-08-01T00:51:31.899Z,52.10
2017-08-01T00:54:00.949Z,51.90
2017-08-01T00:56:29.227Z,51.90
2017-08-01T00:58:58.004Z,51.80
2017-08-01T01:01:26.265Z,51.60
2017-08-01T01:03:55.339Z,52.00
2017-08-01T01:06:24.403Z,52.40
2017-08-01T01:08:52.952Z,52.40
2017-08-01T01:11:22.332Z,52.50
2017-08-01T01:13:50.606Z,52.40
2017-08-01T01:16:19.037Z,52.70
2017-08-01T01:18:47.313Z,53.00
2017-08-01T01:21:15.632Z,53.10
2017-08-01T01:23:43.966Z,53.30
2017-08-01T01:26:12.216Z,53.40
2017-08-01T01:28:40.476Z,53.00
2017-08-01T01:31:08.867Z,53.10
2017-08-01T01:33:37.207Z,53.40
2017-08-01T01:36:06.275Z,54.20
2017-08-01T01:38:34.782Z,54.20
2017-08-01T01:41:03.173Z,54.10
2017-08-01T01:43:31.444Z,54.10
2017-08-01T01:45:59.757Z,54.20
2017-08-01T01:48:28.552Z,54.10
2017-08-01T01:50:58.489Z,54.60
2017-08-01T01:53:28.205Z,54.50
2017-08-01T01:55:56.556Z,54.50
2017-08-01T01:58:24.966Z,54.60
2017-08-01T02:00:54.368Z,54.70
2017-08-01T02:03:23.465Z,54.70
2017-08-01T02:05:51.895Z,54.60
2017-08-01T02:08:20.424Z,54.60
2017-08-01T02:10:49.057Z,54.80
2017-08-01T02:13:17.306Z,54.70
2017-08-01T02:15:45.618Z,54.70
2017-08-01T02:18:14.250Z,54.80
2017-08-01T02:20:42.469Z,54.90
2017-08-01T02:23:10.988Z,55.10
2017-08-01T02:25:40.044Z,55.00
2017-08-01T02:28:09.537Z,55.00
2017-08-01T02:30:39.065Z,54.70
2017-08-01T02:33:07.491Z,54.50
2017-08-01T02:35:35.974Z,54.80
2017-08-01T02:38:04.896Z,55.20
2017-08-01T02:40:33.479Z,55.40
2017-08-01T02:43:01.723Z,55.40
2017-08-01T02:45:30.752Z,55.80
2017-08-01T02:47:59.106Z,55.80
2017-08-01T02:50:27.372Z,55.80
2017-08-01T02:52:55.733Z,55.50
2017-08-01T02:55:25.870Z,55.70
2017-08-01T02:57:54.130Z,55.70
2017-08-01T03:00:23.857Z,55.90
2017-08-01T03:02:53.158Z,55.70
2017-08-01T03:05:21.419Z,55.70
2017-08-01T03:07:49.745Z,55.50
2017-08-01T03:10:18.017Z,55.20
2017-08-01T03:12:46.616Z,55.10
2017-08-01T03:15:14.991Z,55.10
2017-08-01T03:17:43.273Z,55.10
2017-08-01T03:20:11.958Z,55.00
2017-08-01T03:22:40.200Z,54.70
2017-08-01T03:25:09.296Z,54.70
2017-08-01T03:27:37.727Z,54.70
2017-08-01T03:30:06.001Z,55.20
2017-08-01T03:32:34.524Z,55.60
2017-08-01T03:35:02.914Z,55.80
2017-08-01T03:37:31.969Z,56.40
2017-08-01T03:40:00.214Z,56.40
2017-08-01T03:42:28.551Z,56.60
2017-08-01T03:44:56.893Z,56.70
2017-08-01T03:47:25.524Z,56.90
2017-08-01T03:49:54.570Z,57.10
2017-08-01T03:52:22.869Z,57.20
2017-08-01T03:54:51.112Z,57.40
2017-08-01T03:57:19.817Z,57.70
2017-08-01T03:59:48.124Z,57.70
2017-08-01T04:02:16.373Z,57.70
2017-08-01T04:04:44.691Z,57.70
2017-08-01T04:07:14.114Z,57.60
2017-08-01T04:09:42.479Z,57.70
2017-08-01T04:12:11.634Z,57.70
2017-08-01T04:14:40.890Z,57.60
2017-08-01T04:17:09.142Z,57.70
2017-08-01T04:19:37.635Z,57.70
2017-08-01T04:22:06.077Z,57.60
2017-08-01T04:24:34.845Z,57.70
2017-08-01T04:27:03.918Z,57.80
2017-08-01T04:29:32.185Z,57.70
2017-08-01T04:32:01.482Z,57.70
2017-08-01T04:34:30.589Z,57.70
2017-08-01T04:36:58.856Z,57.70
2017-08-01T04:39:27.203Z,57.70
2017-08-01T04:41:55.747Z,57.60
2017-08-01T04:44:24.057Z,57.60
2017-08-01T04:46:53.288Z,57.60
2017-08-01T04:49:21.921Z,57.60
2017-08-01T04:51:50.531Z,57.80
2017-08-01T04:54:18.776Z,57.90
2017-08-01T04:56:47.379Z,58.20
2017-08-01T04:59:16.533Z,58.40
2017-08-01T05:01:44.804Z,58.50
2017-08-01T05:04:13.060Z,58.40
2017-08-01T05:06:41.420Z,58.50
2017-08-01T05:09:09.764Z,58.50
2017-08-01T05:11:38.098Z,58.70
2017-08-01T05:14:06.414Z,58.90
2017-08-01T05:16:34.741Z,58.90
2017-08-01T05:19:03.047Z,58.90
2017-08-01T05:24:03.077Z,59.00
2017-08-01T05:26:31.441Z,59.10
2017-08-01T05:29:00.553Z,59.20
2017-08-01T05:31:28.992Z,59.10
2017-08-01T05:33:57.244Z,59.10
2017-08-01T05:36:26.288Z,59.70
2017-08-01T05:38:54.584Z,59.10
2017-08-01T05:41:23.096Z,59.10
2017-08-01T05:43:51.818Z,59.30
2017-08-01T05:46:20.169Z,59.60
2017-08-01T05:48:48.679Z,59.70
2017-08-01T05:51:17.169Z,59.60
2017-08-01T05:53:46.970Z,59.70
2017-08-01T05:56:16.000Z,60.70
2017-08-01T05:58:44.345Z,59.80
2017-08-01T06:01:13.434Z,60.00
2017-08-01T06:03:41.710Z,60.10
2017-08-01T06:06:10.176Z,60.20
2017-08-01T06:08:38.920Z,60.30
2017-08-01T06:11:07.619Z,60.40
2017-08-01T06:13:36.457Z,60.50
2017-08-01T06:16:05.582Z,60.70
2017-08-01T06:18:33.952Z,60.60
2017-08-01T06:21:03.065Z,60.70
2017-08-01T06:23:31.495Z,60.70
2017-08-01T06:26:00.702Z,60.70
2017-08-01T06:28:29.674Z,60.70
2017-08-01T06:30:57.991Z,60.90
2017-08-01T06:33:27.011Z,61.30
2017-08-01T06:35:55.325Z,61.40
2017-08-01T06:38:24.592Z,61.20
2017-08-01T06:40:53.433Z,61.20
2017-08-01T06:43:21.829Z,61.10
2017-08-01T06:45:50.121Z,61.10
2017-08-01T06:48:18.522Z,61.20
2017-08-01T06:50:46.908Z,61.10
2017-08-01T06:53:16.251Z,61.20
2017-08-01T06:55:44.598Z,61.40
2017-08-01T06:58:12.893Z,61.30
2017-08-01T07:00:41.342Z,61.30
2017-08-01T07:03:09.669Z,61.30
2017-08-01T07:05:38.710Z,61.50
2017-08-01T07:08:06.968Z,61.50
2017-08-01T07:10:35.274Z,61.50
2017-08-01T07:13:03.753Z,61.50
2017-08-01T07:15:32.492Z,61.30
2017-08-01T07:18:01.516Z,61.40
2017-08-01T07:20:30.137Z,61.50
2017-08-01T07:22:59.270Z,61.20
2017-08-01T07:25:27.914Z,61.40
2017-08-01T07:27:56.221Z,61.10
2017-08-01T07:30:24.513Z,60.40
2017-08-01T07:32:53.584Z,60.00
2017-08-01T07:35:21.978Z,60.00
2017-08-01T07:37:51.000Z,59.40
2017-08-01T07:40:19.345Z,59.40
2017-08-01T07:42:47.726Z,59.50
2017-08-01T07:45:16.021Z,59.50
2017-08-01T07:47:45.191Z,59.50
2017-08-01T07:50:13.449Z,59.50
2017-08-01T07:52:42.092Z,59.00
2017-08-01T07:55:10.454Z,58.70
2017-08-01T07:57:38.936Z,58.50
2017-08-01T08:00:07.753Z,58.40
2017-08-01T08:02:37.302Z,58.20
2017-08-01T08:05:05.748Z,57.50
2017-08-01T08:07:34.413Z,57.50
2017-08-01T08:10:02.764Z,57.30
2017-08-01T08:12:31.808Z,57.50
2017-08-01T08:15:00.114Z,57.50
2017-08-01T08:17:28.392Z,57.90
2017-08-01T08:19:56.889Z,58.20
2017-08-01T08:22:25.960Z,58.70
2017-08-01T08:24:54.294Z,58.70
2017-08-01T08:27:23.372Z,59.00
2017-08-01T08:29:51.598Z,59.10
2017-08-01T08:32:19.985Z,59.40
2017-08-01T08:34:48.320Z,59.20
2017-08-01T08:37:16.604Z,59.50
2017-08-01T08:39:44.885Z,59.60
2017-08-01T08:42:13.246Z,59.60
2017-08-01T08:44:41.532Z,59.60
2017-08-01T08:47:09.816Z,59.60
2017-08-01T08:49:38.153Z,59.70
2017-08-01T08:52:06.382Z,59.70
2017-08-01T08:54:34.775Z,59.70
2017-08-01T08:57:03.024Z,59.70
2017-08-01T08:59:31.357Z,59.70
2017-08-01T09:01:59.687Z,59.70
2017-08-01T09:04:27.965Z,59.70
2017-08-01T09:06:56.325Z,59.70
2017-08-01T09:09:24.746Z,59.70
2017-08-01T09:11:53.053Z,59.70
2017-08-01T09:14:21.330Z,59.50
2017-08-01T09:16:49.622Z,59.60
2017-08-01T09:19:17.871Z,59.70
2017-08-01T09:21:46.139Z,59.70
2017-08-01T09:24:14.654Z,59.70
2017-08-01T09:26:43.714Z,59.80
2017-08-01T09:29:12.070Z,59.70
2017-08-01T09:31:40.308Z,59.70
2017-08-01T09:34:09.362Z,59.70
2017-08-01T09:36:37.669Z,59.80
2017-08-01T09:39:05.978Z,59.70
2017-08-01T09:41:34.314Z,59.80
2017-08-01T09:44:02.672Z,60.80
2017-08-01T09:46:31.858Z,60.70
2017-08-01T09:49:00.287Z,60.70
2017-08-01T09:51:28.572Z,60.50
2017-08-01T09:53:56.924Z,59.70
2017-08-01T09:56:25.369Z,59.70
2017-08-01T09:58:53.652Z,59.70
2017-08-01T10:01:21.922Z,59.70
2017-08-01T10:03:51.363Z,59.10
2017-08-01T10:06:20.432Z,58.60
2017-08-01T10:08:48.834Z,59.00
2017-08-01T10:11:17.098Z,58.70
2017-08-01T10:13:45.750Z,57.70
2017-08-01T10:16:14.206Z,57.80
2017-08-01T10:18:42.482Z,57.70
2017-08-01T10:21:11.093Z,57.90
2017-08-01T10:23:39.635Z,57.60
2017-08-01T10:26:08.816Z,57.60
2017-08-01T10:28:37.220Z,57.00
2017-08-01T10:31:06.609Z,57.10
2017-08-01T10:33:35.982Z,56.90
2017-08-01T10:36:04.952Z,56.80
2017-08-01T10:38:33.325Z,57.20
2017-08-01T10:41:01.617Z,57.50
2017-08-01T10:43:30.132Z,57.20
2017-08-01T10:45:58.472Z,57.30
2017-08-01T10:48:26.813Z,57.60
2017-08-01T10:50:55.191Z,57.30
2017-08-01T10:53:23.557Z,57.40
2017-08-01T10:55:51.795Z,57.30
2017-08-01T10:58:20.199Z,57.20
2017-08-01T11:00:48.803Z,57.30
2017-08-01T11:03:17.099Z,57.40
2017-08-01T11:05:46.255Z,57.50
2017-08-01T11:08:14.792Z,57.50
2017-08-01T11:10:43.097Z,57.40
2017-08-01T11:13:11.354Z,57.50
2017-08-01T11:15:39.689Z,57.30
2017-08-01T11:18:08.054Z,57.70
2017-08-01T11:20:37.140Z,57.00
2017-08-01T11:23:06.213Z,56.40
2017-08-01T11:25:34.496Z,56.50
2017-08-01T11:28:02.796Z,55.80
2017-08-01T11:30:31.220Z,55.80
2017-08-01T11:32:59.662Z,55.60
2017-08-01T11:35:28.165Z,55.80
2017-08-01T11:37:56.521Z,55.80
2017-08-01T11:40:25.660Z,56.40
2017-08-01T11:42:53.959Z,55.70
2017-08-01T11:45:22.238Z,55.80
2017-08-01T11:47:50.600Z,56.10
2017-08-01T11:50:18.930Z,56.40
2017-08-01T11:52:47.238Z,56.10
2017-08-01T11:55:15.504Z,56.20
2017-08-01T11:57:43.816Z,55.90
2017-08-01T12:00:12.151Z,55.90
2017-08-01T12:02:41.301Z,55.60
2017-08-01T12:05:10.475Z,55.60
2017-08-01T12:07:38.752Z,54.90
2017-08-01T12:10:07.082Z,55.20
2017-08-01T12:12:35.473Z,55.00
2017-08-01T12:15:04.550Z,54.90
2017-08-01T12:17:32.841Z,54.90
2017-08-01T12:20:01.191Z,54.80
2017-08-01T12:22:29.488Z,55.10
2017-08-01T12:24:57.750Z,54.30
2017-08-01T12:27:26.098Z,54.40
2017-08-01T12:29:54.370Z,54.50
2017-08-01T12:32:22.664Z,54.40
2017-08-01T12:34:51.063Z,54.70
2017-08-01T12:37:20.179Z,53.90
2017-08-01T12:39:48.488Z,53.90
2017-08-01T12:42:16.753Z,54.00
2017-08-01T12:44:45.157Z,53.90
2017-08-01T12:47:13.577Z,53.50
2017-08-01T12:49:41.890Z,54.00
2017-08-01T12:52:11.024Z,53.90
2017-08-01T12:54:39.348Z,53.80
2017-08-01T12:57:07.913Z,54.10
2017-08-01T12:59:37.063Z,53.80
2017-08-01T13:02:05.327Z,53.50
2017-08-01T13:04:33.704Z,53.70
2017-08-01T13:07:02.039Z,53.90
2017-08-01T13:09:31.105Z,54.20
2017-08-01T13:11:59.516Z,54.20
2017-08-01T13:14:27.875Z,54.50
2017-08-01T13:16:56.186Z,54.70
2017-08-01T13:19:24.501Z,54.90
2017-08-01T13:21:52.842Z,55.20
2017-08-01T13:24:21.172Z,54.90
2017-08-01T13:26:49.541Z,54.70
2017-08-01T13:29:17.969Z,54.60
2017-08-01T13:31:46.343Z,54.80
2017-08-01T13:34:15.417Z,55.50
2017-08-01T13:36:43.836Z,54.90
2017-08-01T13:39:12.692Z,54.60
2017-08-01T13:41:41.036Z,54.30
2017-08-01T13:44:09.372Z,54.20
2017-08-01T13:46:37.644Z,53.50
2017-08-01T13:49:06.019Z,53.40
2017-08-01T13:51:35.077Z,54.00
2017-08-01T13:54:03.374Z,53.40
2017-08-01T13:56:32.561Z,53.50
2017-08-01T13:59:00.869Z,53.90
2017-08-01T14:01:29.140Z,54.30
2017-08-01T14:03:57.474Z,54.30
2017-08-01T14:06:26.918Z,53.90
2017-08-01T14:08:55.687Z,53.50
2017-08-01T14:11:24.613Z,54.10
2017-08-01T14:13:53.247Z,54.20
2017-08-01T14:16:21.693Z,54.40
2017-08-01T14:18:50.951Z,54.50
2017-08-01T14:21:19.525Z,54.50
2017-08-01T14:23:48.614Z,54.80
2017-08-01T14:26:17.010Z,54.70
2017-08-01T14:28:45.275Z,54.50
2017-08-01T14:31:13.595Z,54.50
2017-08-01T14:33:41.875Z,54.30
2017-08-01T14:36:10.290Z,54.00
2017-08-01T14:38:38.559Z,54.00
2017-08-01T14:41:06.998Z,53.80
2017-08-01T14:43:35.291Z,54.00
2017-08-01T14:46:03.593Z,54.50
2017-08-01T14:48:32.658Z,53.70
2017-08-01T14:51:01.436Z,53.60
2017-08-01T14:53:31.483Z,53.20
2017-08-01T14:55:59.793Z,53.20
2017-08-01T14:58:28.802Z,54.70
2017-08-01T15:00:57.500Z,54.40
2017-08-01T15:03:25.774Z,54.30
2017-08-01T15:05:54.065Z,54.40
2017-08-01T15:08:22.377Z,54.40
2017-08-01T15:10:50.740Z,54.30
2017-08-01T15:13:19.003Z,52.80
2017-08-01T15:15:47.289Z,51.70
2017-08-01T15:18:15.596Z,51.50
2017-08-01T15:20:43.954Z,51.70
2017-08-01T15:23:12.552Z,51.80
2017-08-01T15:25:42.828Z,51.60
2017-08-01T15:28:11.124Z,52.00
2017-08-01T15:30:39.435Z,51.70
2017-08-01T15:33:07.992Z,51.70
2017-08-01T15:35:36.610Z,51.80
2017-08-01T15:38:04.995Z,51.70
2017-08-01T15:40:34.073Z,50.80
2017-08-01T15:43:02.457Z,50.80
2017-08-01T15:45:31.576Z,51.10
2017-08-01T15:48:00.043Z,50.50
2017-08-01T15:50:29.242Z,51.90
2017-08-01T15:52:57.523Z,51.60
2017-08-01T15:55:26.574Z,52.00
2017-08-01T15:57:55.502Z,51.90
2017-08-01T16:00:23.882Z,51.90
2017-08-01T16:02:52.241Z,51.00
2017-08-01T16:05:20.525Z,51.70
2017-08-01T16:07:50.471Z,51.40
2017-08-01T16:10:19.534Z,51.50
2017-08-01T16:12:48.622Z,52.10
2017-08-01T16:15:16.966Z,52.10
2017-08-01T16:17:45.230Z,51.90
2017-08-01T16:20:13.558Z,51.80
2017-08-01T16:22:42.129Z,51.70
2017-08-01T16:25:10.435Z,51.70
2017-08-01T16:27:38.869Z,51.60
2017-08-01T16:30:07.251Z,51.50
2017-08-01T16:32:35.649Z,51.50
2017-08-01T16:35:03.901Z,51.30
2017-08-01T16:37:32.319Z,51.00
2017-08-01T16:40:01.421Z,51.90
2017-08-01T16:42:30.484Z,51.30
2017-08-01T16:44:58.800Z,51.20
2017-08-01T16:47:27.086Z,51.10
2017-08-01T16:49:55.385Z,51.20
2017-08-01T16:52:23.815Z,51.80
2017-08-01T16:54:52.378Z,51.90
2017-08-01T16:57:21.518Z,51.90
2017-08-01T16:59:50.558Z,52.20
2017-08-01T17:02:19.654Z,52.10
2017-08-01T17:04:48.026Z,51.90
2017-08-01T17:07:16.349Z,52.10
2017-08-01T17:09:45.562Z,52.50
2017-08-01T17:12:14.580Z,52.70
2017-08-01T17:14:42.920Z,52.70
2017-08-01T17:17:12.028Z,52.40
2017-08-01T17:19:41.078Z,52.60
2017-08-01T17:22:09.466Z,52.60
2017-08-01T17:24:38.584Z,52.40
2017-08-01T17:27:06.877Z,52.40
2017-08-01T17:29:35.971Z,52.70
2017-08-01T17:32:05.052Z,52.70
2017-08-01T17:34:34.249Z,52.90
2017-08-01T17:37:02.532Z,52.90
2017-08-01T17:39:30.842Z,53.30
2017-08-01T17:41:59.155Z,53.50
2017-08-01T17:44:27.414Z,53.50
2017-08-01T17:46:55.807Z,53.90
2017-08-01T17:49:24.084Z,53.90
2017-08-01T17:51:52.446Z,54.20
2017-08-01T17:54:20.717Z,54.20
2017-08-01T17:56:49.147Z,54.20
2017-08-01T17:59:17.430Z,54.10
2017-08-01T18:01:45.911Z,54.20
2017-08-01T18:04:14.242Z,54.40
2017-08-01T18:06:42.573Z,54.40
2017-08-01T18:09:11.683Z,54.50
2017-08-01T18:11:40.906Z,54.30
2017-08-01T18:14:10.151Z,54.20
2017-08-01T18:16:39.260Z,54.50
2017-08-01T18:19:08.548Z,54.00
2017-08-01T18:21:37.120Z,54.70
2017-08-01T18:24:05.726Z,54.20
2017-08-01T18:26:34.301Z,54.40
2017-08-01T18:29:02.668Z,54.70
2017-08-01T18:31:31.029Z,54.90
2017-08-01T18:33:59.406Z,54.80
2017-08-01T18:36:28.130Z,54.80
2017-08-01T18:38:56.710Z,54.70
2017-08-01T18:41:25.290Z,54.80
2017-08-01T18:43:53.975Z,55.00
2017-08-01T18:46:23.359Z,55.30
2017-08-01T18:48:52.678Z,55.10
2017-08-01T18:51:21.373Z,55.10
2017-08-01T18:53:50.168Z,55.20
2017-08-01T18:56:18.948Z,55.30
2017-08-01T18:58:47.631Z,55.40
2017-08-01T19:01:16.460Z,55.40
2017-08-01T19:03:46.312Z,55.50
2017-08-01T19:06:15.222Z,55.40
2017-08-01T19:08:44.034Z,55.30
2017-08-01T19:11:12.899Z,55.40
2017-08-01T19:13:41.790Z,55.60
2017-08-01T19:16:10.684Z,55.90
2017-08-01T19:18:39.573Z,56.10
2017-08-01T19:21:08.359Z,55.90
2017-08-01T19:23:37.154Z,55.60
2017-08-01T19:26:06.142Z,55.60
2017-08-01T19:28:34.829Z,55.50
2017-08-01T19:31:03.822Z,55.30
2017-08-01T19:33:32.619Z,55.50
2017-08-01T19:36:01.558Z,55.60
2017-08-01T19:38:30.309Z,55.60
2017-08-01T19:40:59.085Z,55.60
2017-08-01T19:43:27.767Z,55.60
2017-08-01T19:45:56.555Z,55.70
2017-08-01T19:48:25.236Z,55.90
2017-08-01T19:50:54.027Z,56.10
2017-08-01T19:53:23.032Z,56.30
2017-08-01T19:55:51.913Z,56.30
2017-08-01T19:58:20.912Z,56.40
2017-08-01T20:00:51.234Z,57.10
2017-08-01T20:03:20.041Z,57.10
2017-08-01T20:05:49.429Z,57.40
2017-08-01T20:08:19.251Z,57.70
2017-08-01T20:10:48.335Z,57.70
2017-08-01T20:13:17.380Z,57.50
2017-08-01T20:15:46.327Z,57.30
2017-08-01T20:18:15.632Z,57.20
2017-08-01T20:20:44.935Z,57.40
2017-08-01T20:23:13.938Z,57.50
2017-08-01T20:25:42.973Z,57.40
2017-08-01T20:28:11.922Z,57.40
2017-08-01T20:30:40.662Z,57.50
2017-08-01T20:33:08.955Z,57.50
2017-08-01T20:35:37.644Z,57.50
2017-08-01T20:38:06.062Z,57.40
2017-08-01T20:40:35.236Z,57.20
2017-08-01T20:43:04.482Z,57.30
2017-08-01T20:45:33.325Z,57.20
2017-08-01T20:48:01.771Z,57.20
2017-08-01T20:50:30.240Z,57.30
2017-08-01T20:52:58.680Z,57.20
2017-08-01T20:55:27.259Z,57.10
2017-08-01T20:57:55.925Z,57.10
2017-08-01T21:00:24.275Z,57.10
2017-08-01T21:02:52.685Z,57.00
2017-08-01T21:05:22.165Z,56.90
2017-08-01T21:07:50.603Z,57.00
2017-08-01T21:10:19.193Z,56.80
2017-08-01T21:12:47.612Z,56.90
2017-08-01T21:15:16.123Z,57.00
2017-08-01T21:17:44.433Z,57.20
2017-08-01T21:20:12.793Z,57.20
2017-08-01T21:22:41.931Z,57.10
2017-08-01T21:25:10.358Z,57.00
2017-08-01T21:27:38.769Z,57.00
2017-08-01T21:30:07.317Z,57.00
2017-08-01T21:32:35.702Z,57.00
2017-08-01T21:35:05.110Z,57.00
2017-08-01T21:37:33.493Z,57.30
2017-08-01T21:40:02.585Z,57.50
2017-08-01T21:42:31.879Z,57.70
2017-08-01T21:45:01.028Z,57.80
2017-08-01T21:47:29.355Z,57.80
2017-08-01T21:49:58.431Z,58.10
2017-08-01T21:52:27.848Z,58.10
2017-08-01T21:54:56.168Z,58.10
2017-08-01T21:57:25.125Z,58.20
2017-08-01T21:59:53.478Z,58.50
2017-08-01T22:02:21.933Z,58.60
2017-08-01T22:04:50.416Z,58.70
2017-08-01T22:07:18.673Z,58.60
2017-08-01T22:09:47.216Z,58.50
2017-08-01T22:12:15.846Z,58.40
2017-08-01T22:14:44.293Z,58.30
2017-08-01T22:17:12.598Z,58.30
2017-08-01T22:19:41.100Z,58.30
2017-08-01T22:22:09.528Z,58.30
2017-08-01T22:24:38.620Z,58.60
2017-08-01T22:27:06.972Z,58.70
2017-08-01T22:29:36.212Z,58.20
2017-08-01T22:32:05.277Z,58.20
2017-08-01T22:34:33.594Z,58.20
2017-08-01T22:37:01.875Z,58.20
2017-08-01T22:39:30.240Z,58.20
2017-08-01T22:41:58.577Z,58.60
2017-08-01T22:44:26.898Z,58.60
2017-08-01T22:46:55.224Z,58.70
2017-08-01T22:49:23.540Z,58.80
2017-08-01T22:51:52.087Z,58.70
2017-08-01T22:54:21.180Z,58.90
2017-08-01T22:56:49.453Z,58.90
2017-08-01T22:59:17.848Z,59.00
2017-08-01T23:01:46.118Z,59.00
2017-08-01T23:04:14.527Z,59.20
2017-08-01T23:06:42.835Z,59.20
2017-08-01T23:09:11.096Z,59.20
2017-08-01T23:11:39.503Z,59.10
2017-08-01T23:14:07.905Z,59.10
2017-08-01T23:16:36.205Z,59.00
2017-08-01T23:19:04.536Z,58.90
2017-08-01T23:21:32.874Z,58.80
2017-08-01T23:24:01.934Z,58.80
2017-08-01T23:26:30.234Z,58.80
2017-08-01T23:28:58.557Z,58.80
2017-08-01T23:31:26.910Z,58.90
2017-08-01T23:33:55.955Z,58.90
2017-08-01T23:36:24.230Z,58.90
2017-08-01T23:38:52.510Z,59.00
2017-08-01T23:41:20.853Z,59.20
2017-08-01T23:43:49.196Z,59.30
2017-08-01T23:46:18.290Z,59.60
2017-08-01T23:48:46.542Z,59.50
2017-08-01T23:51:14.885Z,59.60
2017-08-01T23:53:43.325Z,59.60
2017-08-01T23:56:12.417Z,59.60
2017-08-01T23:58:41.474Z,59.60
